Time;durP1;ratioP1;P1;durP2;ratioP2;P2;SDS_P1;SDS_P2;PMS_P1;PMS_P2;Temp;Humidity;BMP_temperature;BMP_pressure;BME280_temperature;BME280_humidity;BME280_pressure;Samples;Min_cycle;Max_cycle;Signal;HPM_P1;HPM_P2
2023/09/28 00:02:55;;;;;;;5.07;3.90;;;19.20;72.20;;;19.58;49.77;95216.22;5029412;28;20491;-66
2023/09/28 00:05:21;;;;;;;13.20;4.37;;;19.10;72.50;;;19.53;49.80;95214.94;5021019;28;20474;-59
2023/09/28 00:07:49;;;;;;;10.73;3.30;;;19.10;72.30;;;19.50;49.64;95217.13;5026836;28;20449;-66
2023/09/28 00:10:16;;;;;;;5.47;3.20;;;19.10;72.20;;;19.49;49.83;95218.19;5025755;28;20858;-59
2023/09/28 00:12:46;;;;;;;9.60;3.30;;;19.00;72.10;;;19.45;49.39;95216.88;5026814;28;20453;-57
2023/09/28 00:15:12;;;;;;;25.27;3.90;;;19.00;71.80;;;19.42;49.38;95211.91;5016769;28;20523;-59
2023/09/28 00:17:39;;;;;;;17.07;3.60;;;19.00;72.30;;;19.41;49.52;95212.91;5024696;28;20497;-58
2023/09/28 00:20:12;;;;;;;6.50;3.60;;;19.00;72.20;;;19.38;49.88;95210.63;5029454;28;20511;-65
2023/09/28 00:22:41;;;;;;;12.20;4.30;;;19.00;72.20;;;19.34;49.83;95224.34;5022998;28;20536;-61
2023/09/28 00:25:10;;;;;;;5.23;3.57;;;18.90;72.90;;;19.31;50.68;95211.38;5025083;28;20564;-58
2023/09/28 00:27:38;;;;;;;10.47;3.17;;;18.90;73.30;;;19.26;50.00;95213.78;5020509;28;20564;-66
2023/09/28 00:30:09;;;;;;;4.10;3.07;;;18.90;73.40;;;19.19;50.70;95215.53;5021380;28;21085;-69
2023/09/28 00:32:36;;;;;;;7.03;3.20;;;18.80;73.50;;;19.15;50.47;95216.91;5025698;28;20533;-66
2023/09/28 00:35:04;;;;;;;6.20;3.70;;;18.80;73.70;;;19.09;50.47;95221.13;5020989;28;20477;-60
2023/09/28 00:37:33;;;;;;;6.50;3.30;;;18.70;74.00;;;19.06;50.91;95229.50;5022312;28;21046;-57
2023/09/28 00:40:06;;;;;;;7.30;3.90;;;18.70;74.30;;;19.02;51.57;95232.72;5024056;28;20479;-57
2023/09/28 00:42:32;;;;;;;15.53;3.80;;;18.60;75.00;;;18.94;51.31;95231.78;5022796;28;20471;-59
2023/09/28 00:45:00;;;;;;;10.43;3.10;;;18.60;74.60;;;18.90;51.40;95227.00;5020118;28;20476;-66
2023/09/28 00:47:26;;;;;;;12.83;3.83;;;18.50;74.50;;;18.86;51.88;95229.22;5024071;28;20456;-59
2023/09/28 00:49:54;;;;;;;15.47;3.47;;;18.50;75.10;;;18.82;51.87;95222.56;5026334;28;20472;-58
2023/09/28 00:52:21;;;;;;;10.77;3.37;;;18.40;75.20;;;18.75;51.36;95222.47;5018343;28;20843;-64
2023/09/28 00:54:50;;;;;;;13.27;3.47;;;18.30;75.20;;;18.68;51.88;95220.69;5018252;28;20568;-66
2023/09/28 00:57:17;;;;;;;8.50;3.50;;;18.30;75.20;;;18.60;51.76;95219.75;5019802;28;20500;-64
2023/09/28 00:59:44;;;;;;;8.30;4.10;;;18.20;75.20;;;18.51;51.84;95212.84;5024330;28;20488;-66
2023/09/28 01:02:11;;;;;;;10.53;4.43;;;18.10;75.60;;;18.46;52.31;95224.03;5023678;28;20456;-67
2023/09/28 01:04:38;;;;;;;11.07;3.70;;;18.10;75.60;;;18.42;52.22;95216.63;5018600;28;20497;-59
2023/09/28 01:07:05;;;;;;;6.83;3.47;;;18.00;76.30;;;18.39;51.88;95219.66;5020994;28;20457;-60
2023/09/28 01:09:32;;;;;;;8.00;4.00;;;18.00;76.10;;;18.36;52.71;95222.66;5019807;28;20469;-64
2023/09/28 01:12:01;;;;;;;10.60;4.00;;;18.00;76.40;;;18.31;52.69;95215.22;5016117;28;20966;-65
2023/09/28 01:14:29;;;;;;;5.13;3.70;;;17.90;76.60;;;18.28;52.25;95223.56;5021662;28;20473;-65
2023/09/28 01:16:55;;;;;;;8.33;4.33;;;17.90;76.80;;;18.24;52.36;95224.91;5018574;28;20476;-57
2023/09/28 01:19:25;;;;;;;5.23;3.90;;;17.90;77.00;;;18.22;52.96;95222.44;5023540;28;20512;-65
2023/09/28 01:21:51;;;;;;;6.73;4.17;;;17.80;76.90;;;18.18;52.38;95217.66;5022339;28;20484;-66
2023/09/28 01:24:20;;;;;;;10.60;4.50;;;17.80;77.00;;;18.14;52.63;95219.84;5020951;28;21045;-66
2023/09/28 01:26:46;;;;;;;15.10;4.20;;;17.80;77.30;;;18.11;52.58;95214.88;5019635;28;20537;-58
2023/09/28 01:29:13;;;;;;;9.30;3.37;;;17.70;77.20;;;18.05;53.17;95221.72;5020931;28;20551;-58
2023/09/28 01:31:39;;;;;;;8.47;4.23;;;17.70;77.40;;;18.03;53.37;95228.22;5021002;28;20452;-65
2023/09/28 01:34:07;;;;;;;6.30;3.47;;;17.60;77.30;;;17.98;53.38;95225.28;5020711;28;20468;-58
2023/09/28 01:36:33;;;;;;;10.60;3.43;;;17.60;77.80;;;17.96;53.71;95224.63;5021573;28;20834;-60
2023/09/28 01:39:07;;;;;;;11.00;4.07;;;17.50;78.10;;;17.92;53.26;95224.13;5025455;28;21093;-64
2023/09/28 01:41:34;;;;;;;7.53;3.33;;;17.60;78.50;;;17.87;53.41;95211.34;5018117;28;20449;-59
2023/09/28 01:44:02;;;;;;;12.70;4.30;;;17.50;78.00;;;17.84;53.43;95219.66;5024214;28;20970;-58
2023/09/28 01:46:28;;;;;;;9.73;3.40;;;17.50;78.30;;;17.81;53.11;95217.34;5024775;28;20457;-66
2023/09/28 01:48:55;;;;;;;16.63;3.50;;;17.50;78.50;;;17.80;53.43;95221.03;5014908;28;20480;-65
2023/09/28 01:51:22;;;;;;;5.90;3.90;;;17.40;78.30;;;17.79;53.10;95215.91;5022064;28;20810;-58
2023/09/28 01:53:49;;;;;;;6.83;3.33;;;17.40;78.30;;;17.77;53.33;95210.75;5018266;28;20504;-58
2023/09/28 01:56:16;;;;;;;7.70;3.23;;;17.40;78.60;;;17.74;53.51;95219.09;5026103;28;20453;-57
2023/09/28 01:58:44;;;;;;;9.30;4.00;;;17.40;79.10;;;17.72;53.71;95229.06;5019524;28;20510;-66
2023/09/28 02:01:22;;;;;;;7.10;3.50;;;17.30;78.50;;;17.71;53.50;95222.91;5023428;28;20469;-66
2023/09/28 02:03:50;;;;;;;8.33;3.50;;;17.30;78.50;;;17.71;53.69;95214.13;5026555;28;20505;-66
2023/09/28 02:06:17;;;;;;;6.90;3.57;;;17.30;78.80;;;17.68;53.67;95214.47;5022942;28;20454;-64
2023/09/28 02:08:45;;;;;;;13.43;4.30;;;17.30;79.10;;;17.69;53.38;95216.94;5022255;28;20460;-65
2023/09/28 02:11:11;;;;;;;6.53;4.07;;;17.30;79.10;;;17.68;53.90;95215.28;5017022;28;20489;-65
2023/09/28 02:13:38;;;;;;;6.30;3.60;;;17.30;79.20;;;17.66;54.18;95219.97;5019689;28;21023;-57
2023/09/28 02:16:11;;;;;;;7.97;3.00;;;17.30;79.50;;;17.66;54.12;95224.44;5022417;28;20464;-60
2023/09/28 02:18:41;;;;;;;9.17;3.90;;;17.20;79.60;;;17.63;53.83;95217.66;5019202;28;20573;-65
2023/09/28 02:21:12;;;;;;;9.20;4.03;;;17.20;80.00;;;17.62;54.36;95231.13;5021248;28;20528;-58
2023/09/28 02:23:40;;;;;;;7.93;3.30;;;17.20;80.10;;;17.60;54.31;95225.13;5018204;28;20437;-58
2023/09/28 02:26:06;;;;;;;13.40;3.80;;;17.20;80.50;;;17.58;53.84;95224.47;5016997;28;20461;-65
2023/09/28 02:28:34;;;;;;;4.20;3.80;;;17.20;80.40;;;17.54;54.43;95224.84;5017606;28;20540;-63
2023/09/28 02:31:07;;;;;;;9.00;3.67;;;17.20;80.50;;;17.51;54.30;95225.19;5019020;28;20473;-57
2023/09/28 02:33:35;;;;;;;6.80;3.90;;;17.20;81.00;;;17.49;54.33;95227.19;5019126;28;20799;-57
2023/09/28 02:36:02;;;;;;;9.10;3.00;;;17.10;81.10;;;17.45;54.40;95231.19;5016551;28;20465;-59
2023/09/28 02:38:30;;;;;;;9.30;4.13;;;17.10;80.90;;;17.41;54.41;95229.88;5019026;28;20526;-64
2023/09/28 02:40:56;;;;;;;8.33;4.27;;;17.10;81.30;;;17.38;54.74;95230.22;5018498;28;20480;-65
2023/09/28 02:43:23;;;;;;;7.33;3.90;;;17.00;81.30;;;17.37;54.99;95233.91;5017471;28;20464;-59
2023/09/28 02:45:50;;;;;;;9.00;3.43;;;17.00;81.70;;;17.36;55.04;95233.06;5029444;28;21016;-66
2023/09/28 02:48:17;;;;;;;9.00;3.30;;;17.00;82.00;;;17.35;54.93;95233.22;5023088;28;20559;-65
2023/09/28 02:50:45;;;;;;;8.63;4.53;;;17.00;82.00;;;17.35;54.65;95235.88;5024837;28;20601;-66
2023/09/28 02:53:12;;;;;;;5.63;3.93;;;16.90;82.00;;;17.34;54.60;95236.91;5027474;28;20461;-60
2023/09/28 02:55:38;;;;;;;15.00;3.90;;;17.00;81.90;;;17.33;54.57;95232.56;5020141;28;20612;-58
2023/09/28 02:58:05;;;;;;;11.80;4.30;;;16.90;82.30;;;17.32;54.80;95239.72;5019570;28;20515;-58
2023/09/28 03:00:32;;;;;;;14.90;4.57;;;17.00;82.60;;;17.32;54.54;95238.88;5027245;28;20488;-58
2023/09/28 03:03:06;;;;;;;7.60;4.13;;;16.90;82.70;;;17.30;54.85;95240.91;5024470;28;20480;-58
2023/09/28 03:05:32;;;;;;;8.47;4.13;;;16.90;82.90;;;17.29;55.17;95249.88;5025021;28;20473;-58
2023/09/28 03:08:04;;;;;;;11.60;4.90;;;16.90;82.90;;;17.29;55.11;95236.56;5025741;28;20888;-64
2023/09/28 03:10:31;;;;;;;5.07;3.80;;;16.90;83.10;;;17.27;55.45;95239.41;5025543;28;20486;-57
2023/09/28 03:12:59;;;;;;;8.87;3.87;;;16.90;83.40;;;17.26;55.38;95234.25;5025914;28;20466;-65
2023/09/28 03:15:25;;;;;;;13.83;3.80;;;16.90;83.60;;;17.25;55.13;95235.28;5018856;28;20519;-61
2023/09/28 03:17:53;;;;;;;4.50;3.90;;;16.80;83.60;;;17.23;55.37;95229.28;5024891;28;20550;-60
2023/09/28 03:20:21;;;;;;;7.53;4.20;;;16.80;83.80;;;17.20;55.63;95233.94;5024204;28;20505;-60
2023/09/28 03:22:49;;;;;;;18.23;4.67;;;16.80;84.00;;;17.16;55.48;95240.59;5023443;28;20532;-65
2023/09/28 03:25:21;;;;;;;12.43;4.70;;;16.80;84.30;;;17.14;55.64;95239.94;5020736;28;20617;-59
2023/09/28 03:27:49;;;;;;;7.20;3.90;;;16.70;84.40;;;17.12;55.75;95238.50;5025876;28;20556;-65
2023/09/28 03:30:16;;;;;;;5.57;3.90;;;16.80;84.90;;;17.10;56.12;95238.66;5025225;28;20607;-64
2023/09/28 03:32:44;;;;;;;12.20;4.13;;;16.70;85.20;;;17.08;56.06;95237.16;5024012;28;20461;-64
2023/09/28 03:35:12;;;;;;;17.13;4.83;;;16.70;85.50;;;17.06;56.35;95245.31;5023949;28;20475;-58
2023/09/28 03:37:40;;;;;;;8.10;4.40;;;16.70;85.70;;;17.04;55.87;95239.34;5024919;28;20449;-58
2023/09/28 03:40:10;;;;;;;8.43;5.20;;;16.70;85.80;;;17.00;56.17;95244.16;5029486;28;20492;-58
2023/09/28 03:42:39;;;;;;;11.90;4.63;;;16.70;85.80;;;16.98;56.11;95240.03;5028123;28;20452;-58
2023/09/28 03:45:08;;;;;;;16.80;4.90;;;16.60;86.20;;;16.95;56.52;95235.88;5027146;28;20484;-59
2023/09/28 03:47:36;;;;;;;6.83;4.33;;;16.60;86.60;;;16.92;56.54;95246.00;5024142;28;20882;-59
2023/09/28 03:50:05;;;;;;;13.20;4.83;;;16.60;86.80;;;16.90;56.43;95245.34;5020395;28;21020;-59
2023/09/28 03:52:34;;;;;;;18.23;5.07;;;16.50;87.00;;;16.87;57.08;95243.00;5020045;28;20461;-64
2023/09/28 03:55:03;;;;;;;11.33;5.50;;;16.50;87.50;;;16.86;57.37;95255.47;5024488;28;20481;-57
2023/09/28 03:57:30;;;;;;;9.60;4.93;;;16.50;88.70;;;16.85;57.11;95251.13;5023405;28;20546;-65
2023/09/28 03:59:59;;;;;;;9.10;5.10;;;16.50;88.70;;;16.83;57.22;95247.81;5021760;28;21016;-59
2023/09/28 04:02:28;;;;;;;23.17;5.20;;;16.50;88.70;;;16.81;57.46;95249.81;5025329;28;20518;-58
2023/09/28 04:04:55;;;;;;;18.67;4.63;;;16.50;88.80;;;16.81;57.46;95249.81;5024754;28;20836;-58
2023/09/28 04:07:23;;;;;;;16.83;5.87;;;16.50;89.70;;;16.79;57.31;95252.66;5022294;28;20911;-65
2023/09/28 04:09:50;;;;;;;14.83;4.70;;;16.50;90.00;;;16.75;57.36;95246.00;5020463;28;20599;-56
2023/09/28 04:12:18;;;;;;;20.80;5.17;;;16.40;90.00;;;16.76;57.44;95246.81;5023813;28;20485;-68
2023/09/28 04:14:45;;;;;;;14.67;5.53;;;16.40;90.00;;;16.73;57.53;95245.34;5019716;28;20500;-66
2023/09/28 04:17:13;;;;;;;20.97;5.37;;;16.40;90.10;;;16.72;57.84;95246.34;5022653;28;20472;-59
2023/09/28 04:19:41;;;;;;;16.27;4.80;;;16.40;90.30;;;16.71;57.49;95244.66;5020074;28;20504;-65
2023/09/28 04:22:08;;;;;;;15.03;6.10;;;16.40;90.30;;;16.73;57.80;95241.84;5022183;28;20503;-62
2023/09/28 04:24:35;;;;;;;15.60;5.80;;;16.30;90.40;;;16.75;57.86;95239.88;5019072;28;21027;-62
2023/09/28 04:27:03;;;;;;;10.50;5.90;;;16.40;90.60;;;16.76;57.65;95253.00;5020540;28;20984;-65
2023/09/28 04:29:30;;;;;;;10.43;4.90;;;16.40;90.70;;;16.77;57.47;95251.16;5024003;28;20872;-62
2023/09/28 04:31:57;;;;;;;15.10;5.07;;;16.40;90.80;;;16.79;57.55;95247.34;5022657;28;20462;-61
2023/09/28 04:34:26;;;;;;;14.80;5.83;;;16.40;90.70;;;16.80;57.32;95248.97;5018176;28;20480;-59
2023/09/28 04:36:53;;;;;;;17.07;5.73;;;16.40;90.60;;;16.81;57.56;95261.28;5023211;28;20516;-63
2023/09/28 04:39:23;;;;;;;15.30;6.07;;;16.40;90.60;;;16.84;57.40;95254.81;5019847;28;20501;-62
2023/09/28 04:41:52;;;;;;;10.93;5.57;;;16.50;90.60;;;16.87;57.12;95258.97;5023478;28;20441;-61
2023/09/28 04:44:19;;;;;;;4.37;3.97;;;16.50;90.60;;;16.92;57.44;95261.97;5023805;28;20479;-63
2023/09/28 04:46:48;;;;;;;15.10;5.57;;;16.50;90.60;;;16.98;57.05;95267.41;5024753;28;20463;-58
2023/09/28 04:49:16;;;;;;;10.00;4.70;;;16.60;90.60;;;17.03;57.18;95267.72;5027938;28;20468;-64
2023/09/28 04:51:44;;;;;;;27.07;5.97;;;16.60;90.50;;;17.10;56.40;95267.03;5026452;28;20457;-65
2023/09/28 04:54:12;;;;;;;15.37;4.50;;;16.70;90.40;;;17.15;56.73;95276.19;5017981;28;20855;-57
2023/09/28 04:56:39;;;;;;;14.77;4.30;;;16.80;90.20;;;17.18;56.83;95270.53;5022477;28;20453;-58
2023/09/28 04:59:06;;;;;;;18.73;5.50;;;16.80;90.10;;;17.24;56.36;95278.81;5023952;28;20488;-58
2023/09/28 05:01:34;;;;;;;16.53;5.70;;;16.80;90.10;;;17.28;56.15;95282.78;5025645;28;20531;-59
2023/09/28 05:04:02;;;;;;;18.07;6.00;;;16.90;90.10;;;17.31;56.68;95277.94;5021808;28;20546;-64
2023/09/28 05:06:29;;;;;;;26.37;5.23;;;16.90;90.10;;;17.36;56.22;95278.25;5022423;28;20499;-58
2023/09/28 05:08:58;;;;;;;25.10;5.33;;;17.00;90.10;;;17.42;56.77;95278.59;5019514;28;20486;-65
2023/09/28 05:11:25;;;;;;;14.30;4.30;;;17.00;90.10;;;17.47;55.98;95281.53;5022555;28;21069;-64
2023/09/28 05:13:53;;;;;;;14.13;5.80;;;17.10;90.10;;;17.50;55.61;95274.03;5018633;28;20461;-60
2023/09/28 05:16:20;;;;;;;14.73;4.93;;;17.10;89.40;;;17.59;55.68;95285.50;5019850;28;20978;-65
2023/09/28 05:18:47;;;;;;;12.27;5.67;;;17.20;89.30;;;17.67;55.75;95281.97;5021831;28;20492;-59
2023/09/28 05:21:15;;;;;;;19.20;5.37;;;17.30;89.40;;;17.72;55.06;95274.28;5019030;28;20453;-59
2023/09/28 05:23:42;;;;;;;12.03;5.30;;;17.30;88.80;;;17.82;55.34;95285.53;5021462;28;20892;-58
2023/09/28 05:26:11;;;;;;;17.23;6.33;;;17.40;88.60;;;17.92;55.06;95277.38;5021485;28;21057;-64
2023/09/28 05:28:38;;;;;;;20.43;5.10;;;17.50;88.50;;;18.02;54.77;95285.16;5018895;28;20888;-57
2023/09/28 05:31:06;;;;;;;17.10;5.33;;;17.60;88.40;;;18.11;54.73;95278.78;5021816;28;20464;-59
2023/09/28 05:33:33;;;;;;;11.90;4.83;;;17.70;88.00;;;18.18;54.95;95287.69;5018515;28;20464;-64
2023/09/28 05:36:00;;;;;;;17.30;5.00;;;17.80;87.50;;;18.26;54.23;95287.66;5017910;28;20827;-59
2023/09/28 05:38:28;;;;;;;12.73;5.20;;;17.90;86.90;;;18.33;54.50;95297.59;5017895;28;20454;-65
2023/09/28 05:40:56;;;;;;;12.73;5.07;;;17.90;86.70;;;18.41;54.17;95300.19;5023274;28;21035;-65
2023/09/28 05:43:25;;;;;;;13.67;5.00;;;18.00;86.30;;;18.48;54.05;95300.28;5018038;28;21344;-65
2023/09/28 05:45:53;;;;;;;12.37;3.97;;;18.00;85.90;;;18.56;53.49;95298.41;5023302;28;20842;-58
2023/09/28 05:48:20;;;;;;;25.17;5.77;;;18.10;85.60;;;18.62;53.10;95296.84;5023855;28;20456;-59
2023/09/28 05:50:47;;;;;;;6.80;3.60;;;18.20;84.30;;;18.73;52.75;95300.91;5018740;28;20852;-56
2023/09/28 05:53:14;;;;;;;6.60;3.17;;;18.30;84.40;;;18.92;52.56;95300.47;5021644;28;20460;-59
2023/09/28 05:55:42;;;;;;;13.13;3.60;;;18.40;83.20;;;19.11;51.94;95292.94;5020650;28;20476;-58
2023/09/28 05:58:09;;;;;;;5.23;3.27;;;18.60;83.50;;;19.29;52.14;95287.28;5021832;28;20806;-65
2023/09/28 06:00:40;;;;;;;12.27;3.50;;;18.80;82.90;;;19.47;51.22;95290.41;5018817;28;20593;-59
2023/09/28 06:03:07;;;;;;;3.20;2.73;;;18.90;81.80;;;19.60;51.24;95296.91;5021515;28;20449;-65
2023/09/28 06:05:35;;;;;;;16.00;3.60;;;19.10;81.20;;;19.70;50.55;95300.13;5019447;28;20477;-60
2023/09/28 06:08:02;;;;;;;18.53;3.10;;;19.20;80.60;;;19.83;50.64;95299.47;5021561;28;20841;-65
2023/09/28 06:10:30;;;;;;;9.20;3.50;;;19.30;80.60;;;19.96;50.47;95294.31;5019142;28;20485;-59
2023/09/28 06:12:57;;;;;;;6.70;3.83;;;19.40;80.30;;;20.07;50.40;95293.00;5023559;28;20471;-65
2023/09/28 06:15:24;;;;;;;22.10;4.33;;;19.60;79.40;;;20.18;49.74;95294.34;5019553;28;20484;-66
2023/09/28 06:17:53;;;;;;;14.33;3.60;;;19.70;78.60;;;20.22;49.86;95288.44;5020226;28;20454;-62
2023/09/28 06:20:20;;;;;;;8.80;3.20;;;19.70;78.40;;;20.34;49.84;95294.09;5026317;28;20503;-58
2023/09/28 06:22:47;;;;;;;11.23;3.70;;;19.80;78.10;;;20.44;49.40;95284.94;5026085;28;20510;-59
2023/09/28 06:25:16;;;;;;;12.47;3.00;;;20.00;78.30;;;20.57;49.07;95287.72;5025231;28;20477;-59
2023/09/28 06:27:43;;;;;;;6.90;2.90;;;20.00;77.40;;;20.67;48.80;95290.13;5026159;28;20842;-59
2023/09/28 06:30:11;;;;;;;8.43;3.20;;;20.20;76.80;;;20.74;48.61;95297.19;5025641;28;20480;-63
2023/09/28 06:32:39;;;;;;;11.37;3.00;;;20.20;76.10;;;20.78;48.14;95298.44;5026068;28;20461;-65
2023/09/28 06:35:10;;;;;;;15.30;4.20;;;20.30;75.50;;;20.85;48.19;95295.84;5026016;28;20534;-59
2023/09/28 06:37:37;;;;;;;8.17;3.63;;;20.40;75.60;;;20.95;48.09;95298.16;5024093;28;20988;-58
2023/09/28 06:40:05;;;;;;;13.63;3.40;;;20.40;75.30;;;21.05;47.79;95298.66;5027554;28;20493;-65
2023/09/28 06:42:33;;;;;;;11.30;4.37;;;20.50;75.00;;;21.14;47.94;95302.81;5027987;28;20449;-58
2023/09/28 06:45:00;;;;;;;8.70;3.83;;;20.60;74.60;;;21.26;47.42;95299.63;5026490;28;20472;-63
2023/09/28 06:47:27;;;;;;;5.67;3.47;;;20.70;74.10;;;21.34;47.35;95302.13;5027631;28;20461;-58
2023/09/28 06:49:54;;;;;;;7.73;3.30;;;20.80;73.90;;;21.41;47.01;95303.03;5027403;28;20488;-65
2023/09/28 06:52:25;;;;;;;5.90;3.40;;;20.90;73.40;;;21.48;46.90;95309.22;5031613;28;20513;-59
2023/09/28 06:54:52;;;;;;;12.67;3.20;;;21.00;73.50;;;21.58;46.66;95303.56;5027975;28;20539;-62
2023/09/28 06:57:20;;;;;;;13.13;4.80;;;21.00;73.00;;;21.70;46.59;95311.03;5022956;28;20669;-60
2023/09/28 06:59:47;;;;;;;9.03;3.53;;;21.20;72.50;;;21.88;46.40;95313.19;5026233;28;20491;-64
2023/09/28 07:02:15;;;;;;;11.20;3.17;;;21.30;72.60;;;22.01;46.15;95307.84;5025069;28;20612;-59
2023/09/28 07:04:42;;;;;;;6.97;3.97;;;21.50;72.10;;;22.15;45.69;95308.72;5026514;28;20484;-64
2023/09/28 07:07:13;;;;;;;11.93;3.40;;;21.60;71.10;;;22.30;45.68;95309.44;5024135;28;20460;-60
2023/09/28 07:09:42;;;;;;;9.10;3.83;;;21.80;71.90;;;22.44;45.81;95312.97;5027802;28;20529;-58
2023/09/28 07:12:10;;;;;;;8.17;3.17;;;21.90;71.50;;;22.60;45.60;95306.38;5026645;28;20551;-60
2023/09/28 07:14:37;;;;;;;8.53;3.70;;;22.00;70.70;;;22.71;45.33;95304.97;5027807;28;20539;-60
2023/09/28 07:17:05;;;;;;;8.17;3.10;;;22.10;71.10;;;22.88;45.52;95310.75;5026927;28;20455;-57
2023/09/28 07:19:32;;;;;;;12.20;2.80;;;22.30;70.60;;;22.99;44.69;95309.31;5026451;28;21014;-66
2023/09/28 07:22:01;;;;;;;5.80;3.00;;;22.40;70.50;;;23.08;45.17;95313.44;5027194;28;20537;-59
2023/09/28 07:24:29;;;;;;;15.50;3.40;;;22.50;70.00;;;23.20;44.53;95314.50;5024552;28;20563;-62
2023/09/28 07:26:58;;;;;;;17.07;3.50;;;22.70;70.20;;;23.44;44.89;95313.03;5024737;28;21011;-60
2023/09/28 07:29:25;;;;;;;9.13;3.10;;;22.90;70.60;;;23.72;44.80;95311.94;5024286;28;20856;-65
2023/09/28 07:31:53;;;;;;;12.37;3.63;;;23.10;70.40;;;23.94;43.95;95317.88;5024045;28;20605;-64
2023/09/28 07:34:20;;;;;;;8.83;3.50;;;23.40;69.70;;;24.07;43.69;95311.63;5020731;28;20469;-64
2023/09/28 07:36:47;;;;;;;9.50;3.80;;;23.50;69.00;;;24.11;44.06;95317.41;5022619;28;20468;-65
2023/09/28 07:39:15;;;;;;;9.30;3.30;;;23.70;69.00;;;24.14;43.98;95311.59;5023988;28;20975;-65
2023/09/28 07:41:42;;;;;;;17.83;3.40;;;23.70;68.80;;;24.19;43.92;95319.84;5023044;28;20453;-59
2023/09/28 07:44:10;;;;;;;9.63;4.47;;;23.70;67.80;;;24.32;44.01;95314.41;5016026;28;20522;-59
2023/09/28 07:46:38;;;;;;;7.80;3.47;;;23.90;68.20;;;24.58;43.36;95306.44;5020639;28;20571;-64
2023/09/28 07:49:07;;;;;;;7.40;3.07;;;24.00;68.00;;;24.79;43.10;95303.38;5022088;28;20558;-58
2023/09/28 07:51:34;;;;;;;9.20;3.87;;;24.30;67.60;;;25.03;42.66;95304.41;5023966;28;20452;-58
2023/09/28 07:54:01;;;;;;;4.50;3.00;;;24.50;66.50;;;25.24;42.52;95307.78;5020188;28;20527;-58
2023/09/28 07:56:28;;;;;;;17.13;4.47;;;24.70;66.50;;;25.37;42.52;95315.75;5019382;28;20457;-60
2023/09/28 07:58:57;;;;;;;16.70;3.23;;;24.80;66.00;;;25.55;41.86;95314.97;5023452;28;20492;-65
2023/09/28 08:01:27;;;;;;;18.77;3.23;;;25.00;65.20;;;25.85;41.88;95303.47;5024460;28;20445;-66
2023/09/28 08:03:55;;;;;;;11.83;2.93;;;25.30;65.40;;;26.29;41.67;95306.09;5025534;28;20456;-65
2023/09/28 08:06:22;;;;;;;8.87;3.30;;;25.70;65.70;;;26.72;40.92;95310.47;5020526;28;20457;-65
2023/09/28 08:08:49;;;;;;;6.20;3.30;;;26.10;64.30;;;26.95;39.85;95303.50;5023011;28;20937;-65
2023/09/28 08:11:17;;;;;;;3.73;2.60;;;26.40;62.70;;;27.15;40.56;95308.56;5018349;28;20493;-65
2023/09/28 08:13:44;;;;;;;8.90;3.00;;;26.60;62.60;;;27.68;37.93;95312.25;5022747;28;20467;-65
2023/09/28 08:16:12;;;;;;;14.03;2.60;;;27.10;59.90;;;28.15;38.68;95311.34;5023030;28;20557;-64
2023/09/28 08:18:41;;;;;;;8.83;3.20;;;27.50;60.20;;;28.41;36.69;95309.97;5020281;28;20452;-64
2023/09/28 08:21:08;;;;;;;9.00;3.07;;;27.80;57.20;;;28.64;37.62;95300.16;5022251;28;20527;-66
2023/09/28 08:23:37;;;;;;;13.23;2.93;;;28.00;58.20;;;28.83;37.13;95301.59;5020823;28;20464;-65
2023/09/28 08:26:04;;;;;;;6.97;3.23;;;28.20;57.30;;;28.94;36.85;95302.59;5022325;28;20454;-64
2023/09/28 08:28:32;;;;;;;11.97;3.00;;;28.40;57.90;;;29.11;37.31;95294.44;5020497;28;20501;-64
2023/09/28 08:31:04;;;;;;;9.13;3.93;;;28.50;57.50;;;29.18;36.58;95303.25;5021631;28;20483;-65
2023/09/28 08:33:32;;;;;;;4.07;2.83;;;28.60;57.00;;;29.09;36.74;95304.72;5020379;28;20991;-64
2023/09/28 08:36:00;;;;;;;8.20;2.93;;;28.50;56.60;;;28.89;36.11;95300.63;5024057;28;20460;-64
2023/09/28 08:38:27;;;;;;;7.43;2.70;;;28.40;56.20;;;28.95;37.04;95299.63;5020432;28;20448;-66
2023/09/28 08:40:59;;;;;;;5.13;2.70;;;28.40;56.80;;;29.33;36.45;95300.00;5024106;28;20500;-60
2023/09/28 08:43:28;;;;;;;7.43;3.30;;;28.60;56.80;;;29.65;35.29;95305.63;5018487;28;20806;-59
2023/09/28 08:45:56;;;;;;;7.83;2.93;;;28.90;55.40;;;29.98;35.79;95295.78;5018105;28;20491;-60
2023/09/28 08:48:23;;;;;;;2.97;2.37;;;29.20;55.80;;;30.38;35.63;95282.94;5020459;28;20453;-59
2023/09/28 08:50:50;;;;;;;10.33;3.33;;;29.60;55.30;;;30.77;34.47;95296.41;5020323;28;20476;-59
2023/09/28 08:53:22;;;;;;;7.90;2.90;;;29.90;54.40;;;31.03;34.17;95291.22;5021719;28;20459;-65
2023/09/28 08:55:54;;;;;;;11.47;3.17;;;30.20;53.70;;;31.18;34.17;95291.34;5024581;28;20848;-61
2023/09/28 08:58:23;;;;;;;6.30;3.43;;;30.40;53.40;;;31.33;33.61;95290.66;5021997;28;20224;-62
2023/09/28 09:00:53;;;;;;;11.93;2.90;;;30.60;53.00;;;31.46;33.87;95294.81;5004171;28;20500;-61
2023/09/28 09:03:21;;;;;;;3.93;3.27;;;30.70;53.10;;;31.44;33.31;95305.16;5016432;28;20209;-64
2023/09/28 09:05:54;;;;;;;9.23;3.10;;;30.70;52.60;;;31.41;32.56;95298.31;5018059;28;20253;-60
2023/09/28 09:08:29;;;;;;;3.70;2.93;;;30.80;51.60;;;31.42;33.13;95301.88;5019038;28;20205;-61
2023/09/28 09:10:59;;;;;;;10.30;3.20;;;30.80;52.10;;;31.58;33.86;95297.38;5028494;28;20220;-64
2023/09/28 09:13:29;;;;;;;9.13;2.63;;;30.90;52.50;;;31.81;33.11;95299.69;5022699;28;20679;-60
2023/09/28 09:16:00;;;;;;;6.00;2.57;;;31.00;51.80;;;32.10;33.17;95290.31;5016532;28;20776;-63
2023/09/28 09:18:28;;;;;;;10.03;3.10;;;31.30;52.20;;;32.45;32.96;95295.09;5020318;28;20202;-62
2023/09/28 09:21:00;;;;;;;19.90;3.47;;;31.50;51.80;;;32.61;32.60;95285.06;5020082;28;20239;-61
2023/09/28 09:23:32;;;;;;;9.00;3.13;;;31.80;51.30;;;32.89;32.34;95291.13;5019202;28;20200;-63
2023/09/28 09:26:03;;;;;;;5.77;3.80;;;32.00;51.30;;;33.01;30.78;95286.22;5023548;28;20228;-63
2023/09/28 09:28:40;;;;;;;11.83;3.37;;;32.20;49.00;;;33.08;31.55;95285.97;5021559;28;20217;-64
2023/09/28 09:31:11;;;;;;;8.57;3.67;;;32.30;50.00;;;33.22;31.96;95283.53;5020357;28;20243;-61
2023/09/28 09:33:41;;;;;;;14.32;3.10;;;32.40;50.90;;;33.44;31.28;95285.97;5021037;28;20204;-62
2023/09/28 09:36:10;;;;;;;10.83;3.13;;;32.60;49.40;;;33.64;31.34;95265.22;5018217;28;20206;-62
2023/09/28 09:38:41;;;;;;;9.38;3.13;;;32.80;49.60;;;33.65;30.85;95291.38;5017676;28;20305;-62
2023/09/28 09:41:13;;;;;;;12.57;3.70;;;32.80;48.50;;;33.43;30.37;95278.88;5022094;28;20224;-63
2023/09/28 09:43:44;;;;;;;4.80;3.35;;;32.70;47.70;;;33.21;30.93;95279.97;5020267;28;20664;-64
2023/09/28 09:46:14;;;;;;;12.25;2.95;;;32.60;48.10;;;33.15;30.52;95274.78;5019247;28;20202;-64
2023/09/28 09:48:46;;;;;;;6.95;3.22;;;32.50;47.70;;;33.20;30.67;95275.63;5018157;28;20229;-63
2023/09/28 09:51:15;;;;;;;7.68;3.10;;;32.50;48.50;;;33.44;31.27;95276.97;5021215;28;20601;-62
2023/09/28 09:53:52;;;;;;;10.20;3.83;;;32.60;48.70;;;33.65;30.45;95275.00;5018024;28;20654;-63
2023/09/28 09:56:21;;;;;;;4.93;2.63;;;32.80;48.10;;;33.80;31.23;95274.19;5021898;28;20207;-64
2023/09/28 09:58:49;;;;;;;7.07;2.75;;;33.00;48.40;;;33.77;30.65;95261.91;4988051;28;20289;-62
2023/09/28 10:01:20;;;;;;;13.65;3.15;;;32.90;48.00;;;33.69;30.60;95268.72;5001582;28;20230;-62
2023/09/28 10:03:50;;;;;;;14.30;3.50;;;33.00;48.00;;;33.55;30.45;95257.56;5020142;28;20233;-64
2023/09/28 10:06:22;;;;;;;15.35;3.40;;;32.80;47.80;;;33.20;30.67;95264.72;5019039;28;20214;-62
2023/09/28 10:08:55;;;;;;;11.00;3.38;;;32.60;47.60;;;32.68;30.83;95260.31;5019746;28;20298;-64
2023/09/28 10:11:23;;;;;;;6.35;3.20;;;32.10;47.30;;;32.07;31.86;95272.63;5023447;28;20195;-63
2023/09/28 10:13:54;;;;;;;6.03;3.40;;;31.60;48.60;;;31.41;32.38;95273.84;5002045;28;20197;-63
2023/09/28 10:16:29;;;;;;;8.88;3.10;;;31.00;49.20;;;30.85;33.20;95270.69;5002959;28;20641;-63
2023/09/28 10:18:57;;;;;;;9.00;3.08;;;30.40;50.20;;;30.46;33.91;95266.25;5017198;28;20226;-62
2023/09/28 10:21:25;;;;;;;7.93;2.90;;;30.00;51.00;;;30.45;34.22;95267.31;5025524;28;20233;-64